createdAt,value
2018-05-23T00:01:03.596Z,13.50
2018-05-23T00:03:31.127Z,13.40
2018-05-23T00:05:58.740Z,13.40
2018-05-23T00:08:27.036Z,13.30
2018-05-23T00:10:54.575Z,13.30
2018-05-23T00:13:22.873Z,13.30
2018-05-23T00:15:50.410Z,13.30
2018-05-23T00:18:19.684Z,13.30
2018-05-23T00:20:47.244Z,13.20
2018-05-23T00:23:14.759Z,13.20
2018-05-23T00:25:42.319Z,13.20
2018-05-23T00:28:09.853Z,13.20
2018-05-23T00:30:38.184Z,13.20
2018-05-23T00:33:05.706Z,13.10
2018-05-23T00:35:33.261Z,13.10
2018-05-23T00:38:01.572Z,13.20
2018-05-23T00:40:29.207Z,13.10
2018-05-23T00:42:56.727Z,13.10
2018-05-23T00:45:24.287Z,13.10
2018-05-23T00:47:52.778Z,13.10
2018-05-23T00:50:21.300Z,13.10
2018-05-23T00:52:48.831Z,13.00
2018-05-23T00:55:28.082Z,13.00
2018-05-23T00:57:55.614Z,13.00
2018-05-23T01:00:23.147Z,12.90
2018-05-23T01:02:50.699Z,12.80
2018-05-23T01:05:18.236Z,12.80
2018-05-23T01:07:45.784Z,12.80
2018-05-23T01:10:13.318Z,12.70
2018-05-23T01:12:40.886Z,12.70
2018-05-23T01:15:08.405Z,12.70
2018-05-23T01:17:36.957Z,12.60
2018-05-23T01:20:04.485Z,12.60
2018-05-23T01:22:32.034Z,12.60
2018-05-23T01:24:59.560Z,12.60
2018-05-23T01:27:27.103Z,12.50
2018-05-23T01:29:54.622Z,12.50
2018-05-23T01:32:22.177Z,12.60
2018-05-23T01:34:49.699Z,12.50
2018-05-23T01:37:17.259Z,12.60
2018-05-23T01:39:44.934Z,12.60
2018-05-23T01:42:12.486Z,12.50
2018-05-23T01:44:40.006Z,12.50
2018-05-23T01:47:08.315Z,12.50
2018-05-23T01:49:35.838Z,12.50
2018-05-23T01:52:04.152Z,12.40
2018-05-23T01:54:31.706Z,12.40
2018-05-23T01:56:59.279Z,12.40
2018-05-23T01:59:26.824Z,12.40
2018-05-23T02:01:54.376Z,12.40
2018-05-23T02:04:21.907Z,12.40
2018-05-23T02:06:50.194Z,12.30
2018-05-23T02:09:17.757Z,12.30
2018-05-23T02:11:46.045Z,12.40
2018-05-23T02:14:13.601Z,12.30
2018-05-23T02:16:41.139Z,12.30
2018-05-23T02:19:08.683Z,12.30
2018-05-23T02:21:36.206Z,12.20
2018-05-23T02:24:03.763Z,12.30
2018-05-23T02:26:31.326Z,12.30
2018-05-23T02:28:58.881Z,12.20
2018-05-23T02:31:26.403Z,12.20
2018-05-23T02:33:54.721Z,12.20
2018-05-23T02:36:22.246Z,12.20
2018-05-23T02:38:50.570Z,12.20
2018-05-23T02:41:18.100Z,12.10
2018-05-23T02:43:45.683Z,12.10
2018-05-23T02:46:19.249Z,12.10
2018-05-23T02:48:47.558Z,12.00
2018-05-23T02:51:15.100Z,12.00
2018-05-23T02:53:42.710Z,12.00
2018-05-23T02:56:10.201Z,12.00
2018-05-23T02:58:37.804Z,12.10
2018-05-23T03:01:05.325Z,12.10
2018-05-23T03:03:33.629Z,12.10
2018-05-23T03:06:01.174Z,12.00
2018-05-23T03:08:28.721Z,12.00
2018-05-23T03:10:57.007Z,12.00
2018-05-23T03:13:25.317Z,12.00
2018-05-23T03:15:52.844Z,12.00
2018-05-23T03:18:21.149Z,12.10
2018-05-23T03:20:48.683Z,12.10
2018-05-23T03:23:16.292Z,12.10
2018-05-23T03:25:43.820Z,12.10
2018-05-23T03:28:12.466Z,12.10
2018-05-23T03:30:40.024Z,12.20
2018-05-23T03:33:07.566Z,12.20
2018-05-23T03:35:36.097Z,12.20
2018-05-23T03:38:03.647Z,12.20
2018-05-23T03:40:31.960Z,12.30
2018-05-23T03:42:59.493Z,12.20
2018-05-23T03:45:27.817Z,12.30
2018-05-23T03:47:56.111Z,12.30
2018-05-23T03:50:23.698Z,12.30
2018-05-23T03:52:51.997Z,12.40
2018-05-23T03:55:20.517Z,12.40
2018-05-23T03:57:49.934Z,12.40
2018-05-23T04:00:29.432Z,12.40
2018-05-23T04:03:09.735Z,12.50
2018-05-23T04:05:49.167Z,12.50
2018-05-23T04:08:16.711Z,12.50
2018-05-23T04:10:44.265Z,12.60
2018-05-23T04:13:11.797Z,12.70
2018-05-23T04:15:39.364Z,12.70
2018-05-23T04:18:06.886Z,12.80
2018-05-23T04:20:34.431Z,12.90
2018-05-23T04:23:01.958Z,13.00
2018-05-23T04:25:29.507Z,13.00
2018-05-23T04:27:57.035Z,13.20
2018-05-23T04:30:25.365Z,14.50
2018-05-23T04:32:52.900Z,14.50
2018-05-23T04:35:20.467Z,16.50
2018-05-23T04:37:48.019Z,17.80
2018-05-23T04:40:15.597Z,18.90
2018-05-23T04:42:43.132Z,19.30
2018-05-23T04:45:11.578Z,19.90
2018-05-23T04:47:39.132Z,20.00
2018-05-23T04:50:06.677Z,20.40
2018-05-23T04:52:34.256Z,21.40
2018-05-23T04:55:01.795Z,21.20
2018-05-23T04:57:34.956Z,21.40
2018-05-23T05:00:02.499Z,21.90
2018-05-23T05:02:30.064Z,22.20
2018-05-23T05:04:57.614Z,22.20
2018-05-23T05:07:25.174Z,22.30
2018-05-23T05:09:54.521Z,22.10
2018-05-23T05:12:28.023Z,22.10
2018-05-23T05:14:55.565Z,22.60
2018-05-23T05:17:23.103Z,23.30
2018-05-23T05:19:50.648Z,24.00
2018-05-23T05:22:18.213Z,24.30
2018-05-23T05:24:46.544Z,23.50
2018-05-23T05:27:14.100Z,23.40
2018-05-23T05:29:41.751Z,23.30
2018-05-23T05:32:09.351Z,22.60
2018-05-23T05:34:36.917Z,22.80
2018-05-23T05:37:04.455Z,23.30
2018-05-23T05:39:31.999Z,23.60
2018-05-23T05:41:59.530Z,23.30
2018-05-23T05:44:27.080Z,24.20
2018-05-23T05:46:55.461Z,24.80
2018-05-23T05:49:22.958Z,24.70
2018-05-23T05:51:50.499Z,25.70
2018-05-23T05:54:18.063Z,25.60
2018-05-23T05:56:45.597Z,25.40
2018-05-23T05:59:13.928Z,24.90
2018-05-23T06:01:41.541Z,24.90
2018-05-23T06:04:09.836Z,24.30
2018-05-23T06:06:37.395Z,24.30
2018-05-23T06:09:05.742Z,24.80
2018-05-23T06:11:34.130Z,25.10
2018-05-23T06:14:02.436Z,24.90
2018-05-23T06:16:29.989Z,24.90
2018-05-23T06:18:57.518Z,25.50
2018-05-23T06:21:25.110Z,25.70
2018-05-23T06:23:52.634Z,25.80
2018-05-23T06:26:20.709Z,26.20
2018-05-23T06:28:49.035Z,25.10
2018-05-23T06:31:16.584Z,25.10
2018-05-23T06:33:44.143Z,25.50
2018-05-23T06:36:11.664Z,25.70
2018-05-23T06:38:39.190Z,25.30
2018-05-23T06:41:06.727Z,25.70
2018-05-23T06:43:34.320Z,25.60
2018-05-23T06:46:01.834Z,26.60
2018-05-23T06:48:29.367Z,26.70
2018-05-23T06:50:56.900Z,26.70
2018-05-23T06:53:24.450Z,26.80
2018-05-23T06:55:51.999Z,26.40
2018-05-23T06:58:19.547Z,25.70
2018-05-23T07:00:47.100Z,26.40
2018-05-23T07:03:14.628Z,26.20
2018-05-23T07:05:42.180Z,25.60
2018-05-23T07:08:10.667Z,25.80
2018-05-23T07:10:38.236Z,26.50
2018-05-23T07:13:06.548Z,27.20
2018-05-23T07:15:34.113Z,27.20
2018-05-23T07:18:01.728Z,25.90
2018-05-23T07:20:29.233Z,25.90
2018-05-23T07:22:56.778Z,26.20
2018-05-23T07:25:24.328Z,26.70
2018-05-23T07:27:52.619Z,28.20
2018-05-23T07:30:20.184Z,28.10
2018-05-23T07:32:47.793Z,27.80
2018-05-23T07:35:15.341Z,27.60
2018-05-23T07:37:42.905Z,27.90
2018-05-23T07:40:10.456Z,28.40
2018-05-23T07:42:37.993Z,27.90
2018-05-23T07:45:05.531Z,28.20
2018-05-23T07:47:33.062Z,27.30
2018-05-23T07:50:00.614Z,27.20
2018-05-23T07:52:28.140Z,27.30
2018-05-23T07:54:55.670Z,27.60
2018-05-23T07:57:23.238Z,27.20
2018-05-23T07:59:50.761Z,27.30
2018-05-23T08:02:18.314Z,27.30
2018-05-23T08:04:45.872Z,28.30
2018-05-23T08:07:13.429Z,28.80
2018-05-23T08:09:40.947Z,27.80
2018-05-23T08:12:08.500Z,28.10
2018-05-23T08:14:36.052Z,28.90
2018-05-23T08:17:03.663Z,28.60
2018-05-23T08:19:31.206Z,28.50
2018-05-23T08:21:58.860Z,27.70
2018-05-23T08:24:26.508Z,27.50
2018-05-23T08:26:53.952Z,28.00
2018-05-23T08:29:22.265Z,28.40
2018-05-23T08:31:50.814Z,28.40
2018-05-23T08:34:18.375Z,28.70
2018-05-23T08:36:47.902Z,28.10
2018-05-23T08:39:15.460Z,27.80
2018-05-23T08:41:44.070Z,28.10
2018-05-23T08:44:11.629Z,28.40
2018-05-23T08:46:39.190Z,27.90
2018-05-23T08:49:06.720Z,28.30
2018-05-23T08:51:34.300Z,28.50
2018-05-23T08:54:01.831Z,28.70
2018-05-23T08:56:29.384Z,27.80
2018-05-23T08:58:57.672Z,27.80
2018-05-23T09:01:26.038Z,27.50
2018-05-23T09:03:54.339Z,27.60
2018-05-23T09:06:23.820Z,27.60
2018-05-23T09:08:51.353Z,27.60
2018-05-23T09:11:18.900Z,26.50
2018-05-23T09:13:51.296Z,26.90
2018-05-23T09:16:19.631Z,27.10
2018-05-23T09:18:47.288Z,27.10
2018-05-23T09:21:14.834Z,27.10
2018-05-23T09:23:42.434Z,28.00
2018-05-23T09:26:10.031Z,27.70
2018-05-23T09:28:38.327Z,28.00
2018-05-23T09:31:05.871Z,27.90
2018-05-23T09:33:34.171Z,28.50
2018-05-23T09:36:01.725Z,28.40
2018-05-23T09:38:29.256Z,28.10
2018-05-23T09:40:57.764Z,28.30
2018-05-23T09:43:26.051Z,27.70
2018-05-23T09:45:54.521Z,27.70
2018-05-23T09:48:22.827Z,27.10
2018-05-23T09:50:50.378Z,27.00
2018-05-23T09:53:18.839Z,27.00
2018-05-23T09:55:47.162Z,27.20
2018-05-23T09:58:14.691Z,27.20
2018-05-23T10:00:42.227Z,26.80
2018-05-23T10:03:10.529Z,27.40
2018-05-23T10:05:38.061Z,27.40
2018-05-23T10:08:06.381Z,28.20
2018-05-23T10:10:33.904Z,28.20
2018-05-23T10:13:02.223Z,28.40
2018-05-23T10:15:29.753Z,28.40
2018-05-23T10:17:58.080Z,28.50
2018-05-23T10:20:25.614Z,28.40
2018-05-23T10:22:53.171Z,28.40
2018-05-23T10:25:20.696Z,28.20
2018-05-23T10:27:49.021Z,27.70
2018-05-23T10:30:16.551Z,27.70
2018-05-23T10:32:44.116Z,28.50
2018-05-23T10:35:11.643Z,28.20
2018-05-23T10:37:39.197Z,28.20
2018-05-23T10:40:06.727Z,28.10
2018-05-23T10:42:34.323Z,27.70
2018-05-23T10:45:01.920Z,27.70
2018-05-23T10:47:29.485Z,28.40
2018-05-23T10:49:57.009Z,28.00
2018-05-23T10:52:24.571Z,28.50
2018-05-23T10:54:52.116Z,27.30
2018-05-23T10:57:19.672Z,27.50
2018-05-23T10:59:47.200Z,28.00
2018-05-23T11:02:14.742Z,28.60
2018-05-23T11:04:42.266Z,29.00
2018-05-23T11:07:09.815Z,27.90
2018-05-23T11:09:37.369Z,27.40
2018-05-23T11:12:04.924Z,27.70
2018-05-23T11:14:32.470Z,27.80
2018-05-23T11:17:00.044Z,27.40
2018-05-23T11:19:27.602Z,27.70
2018-05-23T11:21:55.136Z,28.30
2018-05-23T11:24:22.689Z,28.80
2018-05-23T11:26:50.262Z,28.60
2018-05-23T11:29:17.826Z,28.80
2018-05-23T11:31:45.364Z,29.10
2018-05-23T11:34:12.921Z,28.80
2018-05-23T11:36:40.507Z,28.20
2018-05-23T11:39:08.065Z,27.70
2018-05-23T11:41:35.604Z,27.80
2018-05-23T11:44:03.191Z,27.40
2018-05-23T11:46:30.736Z,26.90
2018-05-23T11:48:58.307Z,26.50
2018-05-23T11:51:25.885Z,26.90
2018-05-23T11:53:53.451Z,26.50
2018-05-23T11:56:21.598Z,26.90
2018-05-23T11:58:49.136Z,27.30
2018-05-23T12:01:16.679Z,27.00
2018-05-23T12:03:45.011Z,26.00
2018-05-23T12:06:13.338Z,26.20
2018-05-23T12:08:41.648Z,26.10
2018-05-23T12:11:09.195Z,26.00
2018-05-23T12:13:36.767Z,26.40
2018-05-23T12:16:04.308Z,26.60
2018-05-23T12:18:31.873Z,26.50
2018-05-23T12:20:59.425Z,26.20
2018-05-23T12:23:27.771Z,26.60
2018-05-23T12:25:55.346Z,26.50
2018-05-23T12:28:23.696Z,26.40
2018-05-23T12:30:51.239Z,26.40
2018-05-23T12:33:18.772Z,26.20
2018-05-23T12:35:46.327Z,26.30
2018-05-23T12:38:14.615Z,26.50
2018-05-23T12:40:42.160Z,26.50
2018-05-23T12:43:09.723Z,26.80
2018-05-23T12:45:37.294Z,26.60
2018-05-23T12:48:04.853Z,26.60
2018-05-23T12:50:32.441Z,26.20
2018-05-23T12:52:59.994Z,26.00
2018-05-23T12:55:27.559Z,25.90
2018-05-23T12:57:55.096Z,26.40
2018-05-23T13:00:22.659Z,26.70
2018-05-23T13:02:50.189Z,26.60
2018-05-23T13:05:18.530Z,26.40
2018-05-23T13:07:46.080Z,26.50
2018-05-23T13:10:13.633Z,26.00
2018-05-23T13:12:41.254Z,26.40
2018-05-23T13:15:08.766Z,26.40
2018-05-23T13:17:36.307Z,26.00
2018-05-23T13:20:03.901Z,26.10
2018-05-23T13:22:31.427Z,26.40
2018-05-23T13:24:58.993Z,26.20
2018-05-23T13:27:26.563Z,26.00
2018-05-23T13:29:54.134Z,25.70
2018-05-23T13:32:21.681Z,26.00
2018-05-23T13:34:49.236Z,25.90
2018-05-23T13:37:16.789Z,25.90
2018-05-23T13:39:44.365Z,26.20
2018-05-23T13:42:11.907Z,25.80
2018-05-23T13:44:39.480Z,26.00
2018-05-23T13:47:07.003Z,26.00
2018-05-23T13:49:35.306Z,26.20
2018-05-23T13:52:02.860Z,26.10
2018-05-23T13:54:30.402Z,25.90
2018-05-23T13:56:57.987Z,26.20
2018-05-23T13:59:25.529Z,26.60
2018-05-23T14:01:53.185Z,26.30
2018-05-23T14:04:20.634Z,26.30
2018-05-23T14:06:50.898Z,26.50
2018-05-23T14:09:18.458Z,26.50
2018-05-23T14:11:46.022Z,26.40
2018-05-23T14:14:13.593Z,26.40
2018-05-23T14:16:41.170Z,26.30
2018-05-23T14:19:08.750Z,26.20
2018-05-23T14:21:36.308Z,26.30
2018-05-23T14:24:03.851Z,25.70
2018-05-23T14:26:31.411Z,25.70
2018-05-23T14:28:58.949Z,25.90
2018-05-23T14:31:26.505Z,25.70
2018-05-23T14:33:54.039Z,25.80
2018-05-23T14:36:21.629Z,25.90
2018-05-23T14:38:49.167Z,25.70
2018-05-23T14:41:16.719Z,25.70
2018-05-23T14:43:45.086Z,26.10
2018-05-23T14:46:12.609Z,26.00
2018-05-23T14:48:40.172Z,25.80
2018-05-23T14:51:07.721Z,25.60
2018-05-23T14:53:35.247Z,25.60
2018-05-23T14:56:02.818Z,25.70
2018-05-23T14:58:30.366Z,25.80
2018-05-23T15:00:57.927Z,26.00
2018-05-23T15:03:25.457Z,26.00
2018-05-23T15:05:53.790Z,25.50
2018-05-23T15:08:21.363Z,25.50
2018-05-23T15:10:48.903Z,25.60
2018-05-23T15:13:16.461Z,25.80
2018-05-23T15:15:43.996Z,25.70
2018-05-23T15:18:12.479Z,25.90
2018-05-23T15:20:40.036Z,25.90
2018-05-23T15:23:07.609Z,25.70
2018-05-23T15:25:35.139Z,25.80
2018-05-23T15:28:02.707Z,25.70
2018-05-23T15:30:31.011Z,25.50
2018-05-23T15:32:58.554Z,25.50
2018-05-23T15:35:26.109Z,25.50
2018-05-23T15:37:53.668Z,25.30
2018-05-23T15:40:22.024Z,25.40
2018-05-23T15:42:49.588Z,25.30
2018-05-23T15:45:17.102Z,25.20
2018-05-23T15:47:44.662Z,25.00
2018-05-23T15:50:12.251Z,24.90
2018-05-23T15:52:39.801Z,24.90
2018-05-23T15:55:07.408Z,25.20
2018-05-23T15:57:34.972Z,25.10
2018-05-23T16:00:02.531Z,25.20
2018-05-23T16:02:30.847Z,25.10
2018-05-23T16:04:59.376Z,25.10
2018-05-23T16:07:26.947Z,25.00
2018-05-23T16:09:55.247Z,25.00
2018-05-23T16:12:22.805Z,25.00
2018-05-23T16:14:50.403Z,25.00
2018-05-23T16:17:17.890Z,25.00
2018-05-23T16:19:45.456Z,24.70
2018-05-23T16:22:13.775Z,24.30
2018-05-23T16:24:41.417Z,24.30
2018-05-23T16:27:08.916Z,24.20
2018-05-23T16:29:36.455Z,24.20
2018-05-23T16:32:03.994Z,24.20
2018-05-23T16:34:32.311Z,24.20
2018-05-23T16:36:59.848Z,24.10
2018-05-23T16:39:27.406Z,24.10
2018-05-23T16:41:55.859Z,24.00
2018-05-23T16:44:24.441Z,23.90
2018-05-23T16:46:52.924Z,23.90
2018-05-23T16:49:21.236Z,23.90
2018-05-23T16:51:49.682Z,23.80
2018-05-23T16:54:19.002Z,23.70
2018-05-23T16:56:46.535Z,23.60
2018-05-23T16:59:14.098Z,23.60
2018-05-23T17:01:42.600Z,23.50
2018-05-23T17:04:10.159Z,23.40
2018-05-23T17:06:37.683Z,23.30
2018-05-23T17:09:06.016Z,23.20
2018-05-23T17:11:33.544Z,23.10
2018-05-23T17:14:01.871Z,22.90
2018-05-23T17:16:29.409Z,22.80
2018-05-23T17:18:57.876Z,22.80
2018-05-23T17:21:26.193Z,22.60
2018-05-23T17:23:53.772Z,22.60
2018-05-23T17:26:21.310Z,22.60
2018-05-23T17:28:48.903Z,22.50
2018-05-23T17:31:16.513Z,22.40
2018-05-23T17:33:44.040Z,22.30
2018-05-23T17:36:12.552Z,22.30
2018-05-23T17:38:40.086Z,22.20
2018-05-23T17:41:08.408Z,22.10
2018-05-23T17:43:35.969Z,22.10
2018-05-23T17:46:03.514Z,22.10
2018-05-23T17:48:31.091Z,22.00
2018-05-23T17:50:58.651Z,22.00
2018-05-23T17:53:26.167Z,21.90
2018-05-23T17:55:54.511Z,21.80
2018-05-23T17:58:22.049Z,21.80
2018-05-23T18:00:49.609Z,21.70
2018-05-23T18:03:17.156Z,21.70
2018-05-23T18:05:44.757Z,21.60
2018-05-23T18:08:12.333Z,21.60
2018-05-23T18:10:40.719Z,21.40
2018-05-23T18:13:08.269Z,21.40
2018-05-23T18:15:35.831Z,21.40
2018-05-23T18:18:03.399Z,21.30
2018-05-23T18:20:30.977Z,21.30
2018-05-23T18:22:59.311Z,21.10
2018-05-23T18:25:26.895Z,21.10
2018-05-23T18:27:54.428Z,21.00
2018-05-23T18:30:22.011Z,21.00
2018-05-23T18:32:49.554Z,21.00
2018-05-23T18:35:17.107Z,20.90
2018-05-23T18:37:44.646Z,20.90
2018-05-23T18:40:12.209Z,20.80
2018-05-23T18:42:39.752Z,20.70
2018-05-23T18:45:07.328Z,20.70
2018-05-23T18:47:34.916Z,20.60
2018-05-23T18:50:02.455Z,20.60
2018-05-23T18:52:30.034Z,20.50
2018-05-23T18:54:57.589Z,20.50
2018-05-23T18:57:25.135Z,20.40
2018-05-23T18:59:52.723Z,20.30
2018-05-23T19:02:20.312Z,20.30
2018-05-23T19:04:47.862Z,20.30
2018-05-23T19:07:15.481Z,20.30
2018-05-23T19:09:43.011Z,20.20
2018-05-23T19:12:11.360Z,20.10
2018-05-23T19:14:38.911Z,20.10
2018-05-23T19:17:06.501Z,20.10
2018-05-23T19:19:34.108Z,20.10
2018-05-23T19:22:01.669Z,20.00
2018-05-23T19:24:29.222Z,20.00
2018-05-23T19:26:56.811Z,19.90
2018-05-23T19:29:24.372Z,19.80
2018-05-23T19:31:52.026Z,19.80
2018-05-23T19:34:19.588Z,19.70
2018-05-23T19:36:47.170Z,19.60
2018-05-23T19:39:14.852Z,19.60
2018-05-23T19:41:43.216Z,19.50
2018-05-23T19:44:10.760Z,19.50
2018-05-23T19:46:38.329Z,19.40
2018-05-23T19:49:05.890Z,19.30
2018-05-23T19:51:33.546Z,19.30
2018-05-23T19:54:01.105Z,19.20
2018-05-23T19:56:28.705Z,19.10
2018-05-23T19:58:57.016Z,19.00
2018-05-23T20:01:24.603Z,18.90
2018-05-23T20:03:52.168Z,18.80
2018-05-23T20:06:20.036Z,18.80
2018-05-23T20:08:47.590Z,18.70
2018-05-23T20:11:15.141Z,18.60
2018-05-23T20:13:42.724Z,18.50
2018-05-23T20:18:52.409Z,18.40
2018-05-23T20:21:20.699Z,18.30
2018-05-23T20:23:48.296Z,18.20
2018-05-23T20:26:15.870Z,18.20
2018-05-23T20:28:43.424Z,18.10
2018-05-23T20:31:11.009Z,18.00
2018-05-23T20:33:38.583Z,18.00
2018-05-23T20:36:06.892Z,17.90
2018-05-23T20:38:34.455Z,17.90
2018-05-23T20:41:01.992Z,17.80
2018-05-23T20:43:30.324Z,17.70
2018-05-23T20:45:57.843Z,17.60
2018-05-23T20:48:25.410Z,17.60
2018-05-23T20:50:52.967Z,17.50
2018-05-23T20:53:20.502Z,17.40
2018-05-23T20:55:48.040Z,17.40
2018-05-23T20:58:15.608Z,17.40
2018-05-23T21:03:16.001Z,17.20
2018-05-23T21:05:43.615Z,17.20
2018-05-23T21:08:11.106Z,17.10
2018-05-23T21:10:38.637Z,17.00
2018-05-23T21:13:06.983Z,16.90
2018-05-23T21:15:34.516Z,16.90
2018-05-23T21:18:02.076Z,16.90
2018-05-23T21:23:27.857Z,16.80
2018-05-23T21:25:55.394Z,16.80
2018-05-23T21:28:22.952Z,16.70
2018-05-23T21:33:48.682Z,16.60
2018-05-23T21:36:16.271Z,16.50
2018-05-23T21:38:43.854Z,16.40
2018-05-23T21:41:12.204Z,16.30
2018-05-23T21:43:39.830Z,16.30
2018-05-23T21:46:07.376Z,16.30
2018-05-23T21:48:35.706Z,16.20
2018-05-23T21:51:04.081Z,16.10
2018-05-23T21:53:31.660Z,16.10
2018-05-23T21:55:59.214Z,16.10
2018-05-23T22:00:20.311Z,16.00
2018-05-23T22:02:47.885Z,16.00
2018-05-23T22:05:15.447Z,15.90
2018-05-23T22:07:43.007Z,15.90
2018-05-23T22:10:10.568Z,15.90
2018-05-23T22:12:38.105Z,15.80
2018-05-23T22:15:05.667Z,15.80
2018-05-23T22:17:33.186Z,15.80
2018-05-23T22:20:00.748Z,15.80
2018-05-23T22:22:29.046Z,15.70
2018-05-23T22:24:56.600Z,15.70
2018-05-23T22:27:24.131Z,15.70
2018-05-23T22:29:51.677Z,15.70
2018-05-23T22:32:19.215Z,15.60
2018-05-23T22:34:46.772Z,15.60
2018-05-23T22:37:14.309Z,15.60
2018-05-23T22:39:41.855Z,15.50
2018-05-23T22:42:09.399Z,15.50
2018-05-23T22:44:37.805Z,15.30
2018-05-23T22:47:05.338Z,15.30
2018-05-23T22:49:33.646Z,15.30
2018-05-23T22:52:01.218Z,15.30
2018-05-23T22:54:28.754Z,15.30
2018-05-23T22:56:56.314Z,15.20
2018-05-23T22:59:23.857Z,15.20
2018-05-23T23:01:51.436Z,15.10
2018-05-23T23:04:18.970Z,15.10
2018-05-23T23:06:46.520Z,15.10
2018-05-23T23:09:14.047Z,15.10
2018-05-23T23:11:41.592Z,15.10
2018-05-23T23:14:09.126Z,15.10
2018-05-23T23:16:37.440Z,15.10
2018-05-23T23:19:04.980Z,15.10
2018-05-23T23:21:32.533Z,15.10
2018-05-23T23:24:00.143Z,15.10
2018-05-23T23:26:27.693Z,15.10
2018-05-23T23:28:55.216Z,15.10
2018-05-23T23:31:22.777Z,15.20
2018-05-23T23:33:50.310Z,15.40
2018-05-23T23:36:17.871Z,15.50
2018-05-23T23:38:46.176Z,15.40
2018-05-23T23:41:13.729Z,15.40
2018-05-23T23:43:42.024Z,15.30
2018-05-23T23:46:09.582Z,15.30
2018-05-23T23:48:37.129Z,15.30
2018-05-23T23:51:04.693Z,15.30
2018-05-23T23:53:32.238Z,15.20
2018-05-23T23:56:00.556Z,15.10
2018-05-23T23:58:28.084Z,15.10
